createdAt,value
2022-08-05T00:02:07.929Z,63.33
2022-08-05T00:04:38.226Z,63.59
2022-08-05T00:07:27.373Z,63.45
2022-08-05T00:09:53.807Z,63.31
2022-08-05T00:12:21.687Z,63.32
2022-08-05T00:14:51.887Z,63.64
2022-08-05T00:17:20.222Z,63.64
2022-08-05T00:20:01.820Z,63.68
2022-08-05T00:22:29.484Z,63.81
2022-08-05T00:24:57.976Z,63.68
2022-08-05T00:27:28.530Z,63.72
2022-08-05T00:30:04.851Z,64.08
2022-08-05T00:32:37.812Z,64.05
2022-08-05T00:35:07.834Z,63.98
2022-08-05T00:37:35.714Z,63.94
2022-08-05T00:40:27.299Z,63.88
2022-08-05T00:42:57.254Z,64.05
2022-08-05T00:45:27.982Z,64.19
2022-08-05T00:48:06.081Z,64.37
2022-08-05T00:50:33.547Z,64.32
2022-08-05T00:53:00.847Z,64.46
2022-08-05T00:55:42.344Z,64.78
2022-08-05T00:58:16.829Z,65.04
2022-08-05T01:00:47.593Z,64.99
2022-08-05T01:03:22.920Z,65.13
2022-08-05T01:05:51.408Z,65.14
2022-08-05T01:08:41.990Z,65.22
2022-08-05T01:11:22.525Z,65.37
2022-08-05T01:14:08.887Z,65.73
2022-08-05T01:16:48.103Z,65.58
2022-08-05T01:19:36.548Z,65.77
2022-08-05T01:22:23.877Z,65.89
2022-08-05T01:25:02.758Z,66.10
2022-08-05T01:28:17.168Z,65.67
2022-08-05T01:30:56.220Z,65.88
2022-08-05T01:33:35.572Z,65.82
2022-08-05T01:36:13.212Z,65.80
2022-08-05T01:38:45.714Z,65.96
2022-08-05T01:41:18.419Z,65.65
2022-08-05T01:43:49.494Z,65.89
2022-08-05T01:46:41.583Z,65.89
2022-08-05T01:49:22.707Z,65.91
2022-08-05T01:51:55.559Z,66.22
2022-08-05T01:54:27.315Z,66.47
2022-08-05T01:58:10.214Z,66.80
2022-08-05T01:59:47.303Z,67.21
2022-08-05T02:02:15.962Z,67.33
2022-08-05T02:04:49.667Z,67.18
2022-08-05T02:07:22.082Z,67.36
2022-08-05T02:09:50.982Z,67.56
2022-08-05T02:13:02.518Z,67.31
2022-08-05T02:15:45.124Z,67.29
2022-08-05T02:18:36.333Z,67.27
2022-08-05T02:21:22.144Z,67.21
2022-08-05T02:23:53.651Z,67.51
2022-08-05T02:26:27.752Z,67.91
2022-08-05T02:28:58.332Z,67.98
2022-08-05T02:31:29.515Z,68.34
2022-08-05T02:34:05.933Z,68.93
2022-08-05T02:36:38.782Z,69.02
2022-08-05T02:39:08.653Z,68.97
2022-08-05T02:41:57.573Z,69.36
2022-08-05T02:44:25.723Z,69.32
2022-08-05T02:47:00.269Z,69.28
2022-08-05T02:49:35.809Z,69.18
2022-08-05T02:52:13.689Z,68.84
2022-08-05T02:54:58.758Z,69.10
2022-08-05T02:58:20.177Z,69.33
2022-08-05T03:00:17.187Z,69.21
2022-08-05T03:02:45.779Z,69.10
2022-08-05T03:05:15.120Z,69.24
2022-08-05T03:08:00.559Z,69.13
2022-08-05T03:10:29.866Z,68.94
2022-08-05T03:15:24.178Z,68.73
2022-08-05T03:17:57.807Z,69.28
2022-08-05T03:20:25.145Z,69.21
2022-08-05T03:22:53.328Z,68.72
2022-08-05T03:26:04.012Z,68.75
2022-08-05T03:28:11.380Z,69.04
2022-08-05T03:30:41.275Z,69.03
2022-08-05T03:33:09.478Z,69.05
2022-08-05T03:35:41.031Z,69.25
2022-08-05T03:38:12.019Z,69.25
2022-08-05T03:40:47.467Z,69.04
2022-08-05T03:44:09.535Z,68.91
2022-08-05T03:46:04.688Z,69.38
2022-08-05T03:48:35.387Z,69.12
2022-08-05T03:52:35.170Z,69.21
2022-08-05T03:55:53.047Z,69.23
2022-08-05T03:56:54.170Z,69.42
2022-08-05T03:59:38.078Z,69.36
2022-08-05T04:02:17.583Z,69.64
2022-08-05T04:05:05.715Z,69.87
2022-08-05T04:07:57.968Z,70.07
2022-08-05T04:10:28.282Z,70.46
2022-08-05T04:12:59.257Z,70.72
2022-08-05T04:15:27.799Z,71.44
2022-08-05T04:18:03.906Z,71.92
2022-08-05T04:20:33.745Z,71.76
2022-08-05T04:23:00.389Z,71.95
2022-08-05T04:25:58.000Z,72.28
2022-08-05T04:28:14.536Z,72.71
2022-08-05T04:30:41.730Z,72.68
2022-08-05T04:33:09.662Z,72.57
2022-08-05T04:36:15.551Z,72.98
2022-08-05T04:38:23.529Z,72.93
2022-08-05T04:41:07.377Z,73.20
2022-08-05T04:43:36.022Z,73.41
2022-08-05T04:46:05.041Z,73.62
2022-08-05T04:48:32.273Z,73.94
2022-08-05T04:51:01.989Z,74.34
2022-08-05T04:53:33.535Z,74.13
2022-08-05T04:56:32.356Z,74.70
2022-08-05T04:58:49.164Z,74.43
2022-08-05T05:01:15.857Z,74.98
2022-08-05T05:04:02.373Z,74.68
2022-08-05T05:06:39.968Z,74.77
2022-08-05T05:09:14.150Z,74.83
2022-08-05T05:11:54.500Z,75.06
2022-08-05T05:14:27.762Z,74.83
2022-08-05T05:17:01.468Z,74.77
2022-08-05T05:19:37.232Z,74.67
2022-08-05T05:22:24.515Z,75.01
2022-08-05T05:24:58.900Z,74.95
2022-08-05T05:27:44.794Z,75.04
2022-08-05T05:30:31.031Z,75.09
2022-08-05T05:33:09.422Z,75.41
2022-08-05T05:35:45.606Z,75.32
2022-08-05T05:38:13.082Z,75.51
2022-08-05T05:40:49.418Z,75.45
2022-08-05T05:43:27.646Z,75.59
2022-08-05T05:46:05.271Z,75.58
2022-08-05T05:48:34.552Z,75.96
2022-08-05T05:51:15.168Z,75.78
2022-08-05T05:53:54.132Z,75.70
2022-08-05T05:56:32.507Z,75.87
2022-08-05T05:59:06.422Z,76.11
2022-08-05T06:01:37.505Z,76.17
2022-08-05T06:04:11.802Z,76.35
2022-08-05T06:06:42.660Z,76.27
2022-08-05T06:09:16.590Z,76.61
2022-08-05T06:11:58.957Z,76.37
2022-08-05T06:14:28.056Z,76.44
2022-08-05T06:16:55.563Z,76.20
2022-08-05T06:19:32.912Z,76.44
2022-08-05T06:22:03.804Z,76.21
2022-08-05T06:24:30.930Z,76.62
2022-08-05T06:26:57.851Z,76.61
2022-08-05T06:29:46.437Z,76.47
2022-08-05T06:32:26.329Z,75.65
2022-08-05T06:34:58.407Z,76.19
2022-08-05T06:37:55.685Z,75.70
2022-08-05T06:40:18.237Z,75.92
2022-08-05T06:42:48.238Z,76.14
2022-08-05T06:45:21.189Z,76.25
2022-08-05T06:48:37.208Z,76.21
2022-08-05T06:50:35.350Z,76.27
2022-08-05T06:53:03.919Z,76.10
2022-08-05T06:55:38.421Z,76.11
2022-08-05T06:58:30.155Z,75.68
2022-08-05T07:00:58.569Z,75.40
2022-08-05T07:03:27.987Z,75.08
2022-08-05T07:05:59.294Z,75.18
2022-08-05T07:08:25.856Z,75.28
2022-08-05T07:10:53.912Z,74.95
2022-08-05T07:13:59.331Z,74.88
2022-08-05T07:17:57.299Z,74.33
2022-08-05T07:22:28.215Z,74.37
2022-08-05T07:24:56.471Z,74.01
2022-08-05T07:27:23.157Z,73.78
2022-08-05T07:30:27.641Z,73.51
2022-08-05T07:32:41.073Z,73.37
2022-08-05T07:36:02.308Z,72.96
2022-08-05T07:37:58.964Z,72.71
2022-08-05T07:40:32.139Z,72.14
2022-08-05T07:42:59.853Z,70.72
2022-08-05T07:45:57.029Z,70.11
2022-08-05T07:49:00.433Z,69.84
2022-08-05T07:51:23.109Z,69.46
2022-08-05T07:53:52.220Z,68.92
2022-08-05T07:56:54.783Z,68.92
2022-08-05T07:59:08.459Z,68.13
2022-08-05T08:01:35.431Z,67.68
2022-08-05T08:04:08.260Z,67.51
2022-08-05T08:06:34.875Z,66.88
2022-08-05T08:09:01.527Z,66.67
2022-08-05T08:11:47.105Z,66.36
2022-08-05T08:14:19.025Z,66.54
2022-08-05T08:16:51.442Z,66.82
2022-08-05T08:20:10.788Z,66.28
2022-08-05T08:22:09.052Z,66.26
2022-08-05T08:24:51.386Z,65.66
2022-08-05T08:27:19.112Z,65.65
2022-08-05T08:30:05.983Z,65.54
2022-08-05T08:32:36.273Z,65.44
2022-08-05T08:35:13.656Z,64.88
2022-08-05T08:37:45.110Z,65.21
2022-08-05T08:40:12.387Z,64.82
2022-08-05T08:42:50.304Z,64.32
2022-08-05T08:45:26.575Z,64.33
2022-08-05T08:48:12.457Z,64.48
2022-08-05T08:51:03.438Z,63.85
2022-08-05T08:53:37.651Z,63.82
2022-08-05T08:56:07.418Z,63.35
2022-08-05T08:58:36.937Z,63.43
2022-08-05T09:01:15.855Z,62.86
2022-08-05T09:03:54.557Z,63.04
2022-08-05T09:06:36.268Z,62.53
2022-08-05T09:09:03.158Z,62.37
2022-08-05T09:11:53.411Z,62.12
2022-08-05T09:14:57.545Z,61.27
2022-08-05T09:17:41.294Z,61.31
2022-08-05T09:20:02.782Z,61.31
2022-08-05T09:23:07.927Z,60.31
2022-08-05T09:26:02.926Z,60.07
2022-08-05T09:28:31.483Z,59.60
2022-08-05T09:31:18.228Z,59.23
2022-08-05T09:33:52.365Z,59.33
2022-08-05T09:36:20.738Z,59.14
2022-08-05T09:39:00.577Z,58.22
2022-08-05T09:41:33.122Z,57.95
2022-08-05T09:44:05.752Z,57.70
2022-08-05T09:46:35.076Z,57.42
2022-08-05T09:49:19.516Z,56.81
2022-08-05T09:51:49.462Z,56.55
2022-08-05T09:54:21.151Z,56.00
2022-08-05T09:56:52.342Z,55.51
2022-08-05T09:59:24.351Z,54.63
2022-08-05T10:01:57.859Z,54.77
2022-08-05T10:04:35.917Z,54.92
2022-08-05T10:07:14.139Z,54.57
2022-08-05T10:10:02.710Z,54.43
2022-08-05T10:12:49.658Z,54.24
2022-08-05T10:15:34.079Z,54.13
2022-08-05T10:18:04.268Z,53.91
2022-08-05T10:20:34.229Z,54.04
2022-08-05T10:23:01.714Z,54.15
2022-08-05T10:25:28.659Z,54.19
2022-08-05T10:28:13.612Z,53.89
2022-08-05T10:32:49.187Z,53.72
2022-08-05T10:33:34.249Z,53.80
2022-08-05T10:36:06.331Z,54.14
2022-08-05T10:38:35.990Z,54.96
2022-08-05T10:41:13.860Z,54.87
2022-08-05T10:44:05.605Z,55.54
2022-08-05T10:46:53.981Z,56.06
2022-08-05T10:49:27.147Z,56.45
2022-08-05T10:52:02.725Z,56.56
2022-08-05T10:55:03.047Z,56.36
2022-08-05T10:57:31.836Z,56.22
2022-08-05T11:00:20.893Z,56.28
2022-08-05T11:03:24.317Z,56.12
2022-08-05T11:06:15.344Z,55.82
2022-08-05T11:09:32.500Z,55.88
2022-08-05T11:12:06.366Z,55.46
2022-08-05T11:17:59.449Z,55.69
2022-08-05T11:20:46.531Z,55.86
2022-08-05T11:24:03.166Z,56.58
2022-08-05T11:26:28.031Z,57.08
2022-08-05T11:28:56.711Z,57.90
2022-08-05T11:31:58.906Z,58.07
2022-08-05T11:34:18.093Z,58.55
2022-08-05T11:36:52.749Z,59.03
2022-08-05T11:39:49.531Z,59.09
2022-08-05T11:42:27.973Z,58.81
2022-08-05T11:45:03.649Z,59.33
2022-08-05T11:47:49.502Z,59.56
2022-08-05T11:50:17.286Z,59.36
2022-08-05T11:52:46.243Z,59.94
2022-08-05T11:55:15.688Z,60.39
2022-08-05T11:58:09.878Z,60.61
2022-08-05T12:00:38.486Z,61.03
2022-08-05T12:03:28.842Z,60.77
2022-08-05T12:06:06.575Z,60.86
2022-08-05T12:08:49.851Z,60.94
2022-08-05T12:11:28.120Z,61.60
2022-08-05T12:14:04.085Z,61.65
2022-08-05T12:16:38.229Z,61.88
2022-08-05T12:19:08.379Z,62.38
2022-08-05T12:21:49.746Z,63.09
2022-08-05T12:24:20.756Z,63.28
2022-08-05T12:26:53.499Z,63.98
2022-08-05T12:29:27.286Z,65.26
2022-08-05T12:31:57.308Z,66.14
2022-08-05T12:34:28.718Z,67.65
2022-08-05T12:37:17.105Z,68.37
2022-08-05T12:40:03.560Z,68.31
2022-08-05T12:42:40.986Z,68.87
2022-08-05T12:45:10.075Z,69.16
2022-08-05T12:47:37.895Z,69.17
2022-08-05T12:50:17.765Z,69.55
2022-08-05T12:52:59.606Z,70.49
2022-08-05T12:55:32.580Z,71.46
2022-08-05T12:58:50.348Z,71.46
2022-08-05T13:02:01.084Z,71.21
2022-08-05T13:03:42.251Z,71.34
2022-08-05T13:06:13.935Z,71.69
2022-08-05T13:08:50.787Z,71.62
2022-08-05T13:12:01.079Z,72.61
2022-08-05T13:14:24.474Z,72.82
2022-08-05T13:16:56.568Z,73.09
2022-08-05T13:19:52.337Z,73.36
2022-08-05T13:22:28.530Z,73.68
2022-08-05T13:24:57.894Z,73.94
2022-08-05T13:27:37.385Z,74.43
2022-08-05T13:30:34.810Z,74.49
2022-08-05T13:32:54.295Z,75.06
2022-08-05T13:35:31.283Z,75.79
2022-08-05T13:38:15.756Z,75.74
2022-08-05T13:40:55.241Z,76.21
2022-08-05T13:43:22.464Z,76.71
2022-08-05T13:45:49.185Z,76.64
2022-08-05T13:48:58.547Z,76.65
2022-08-05T13:51:13.657Z,76.61
2022-08-05T13:53:47.992Z,76.71
2022-08-05T13:56:18.858Z,76.96
2022-08-05T13:58:53.155Z,76.77
2022-08-05T14:01:25.827Z,77.08
2022-08-05T14:04:21.551Z,76.81
2022-08-05T14:06:58.740Z,77.05
2022-08-05T14:09:46.141Z,77.15
2022-08-05T14:12:17.522Z,77.25
2022-08-05T14:14:58.610Z,77.19
2022-08-05T14:17:26.619Z,77.54
2022-08-05T14:19:59.569Z,77.28
2022-08-05T14:22:30.310Z,77.35
2022-08-05T14:24:57.376Z,77.40
2022-08-05T14:27:24.376Z,76.98
2022-08-05T14:29:56.302Z,77.46
2022-08-05T14:32:26.897Z,77.38
2022-08-05T14:34:54.630Z,76.92
2022-08-05T14:37:24.246Z,77.15
2022-08-05T14:40:11.109Z,77.60
2022-08-05T14:42:41.424Z,77.78
2022-08-05T14:45:10.126Z,77.59
2022-08-05T14:48:03.475Z,77.95
2022-08-05T14:50:25.249Z,77.90
2022-08-05T14:52:57.751Z,77.86
2022-08-05T14:55:39.283Z,77.91
2022-08-05T14:58:12.125Z,77.64
2022-08-05T15:00:58.493Z,77.55
2022-08-05T15:03:33.958Z,77.74
2022-08-05T15:06:08.143Z,77.95
2022-08-05T15:08:59.145Z,78.04
2022-08-05T15:11:51.351Z,78.25
2022-08-05T15:14:20.134Z,78.46
2022-08-05T15:17:01.212Z,77.96
2022-08-05T15:19:27.886Z,78.22
2022-08-05T15:21:59.948Z,78.26
2022-08-05T15:24:27.816Z,78.25
2022-08-05T15:26:55.795Z,78.47
2022-08-05T15:29:22.857Z,78.50
2022-08-05T15:31:53.107Z,78.46
2022-08-05T15:34:33.127Z,78.81
2022-08-05T15:37:06.434Z,78.56
2022-08-05T15:40:58.548Z,78.55
2022-08-05T15:42:55.229Z,78.50
2022-08-05T15:45:09.721Z,78.58
2022-08-05T15:47:36.554Z,78.55
2022-08-05T15:50:04.516Z,78.78
2022-08-05T15:52:53.517Z,78.92
2022-08-05T15:55:24.837Z,78.67
2022-08-05T15:58:07.405Z,78.73
2022-08-05T16:01:03.426Z,78.88
2022-08-05T16:03:21.123Z,78.71
2022-08-05T16:05:52.466Z,78.80
2022-08-05T16:08:19.501Z,78.75
2022-08-05T16:10:46.104Z,78.85
2022-08-05T16:13:23.536Z,78.23
2022-08-05T16:15:51.933Z,77.99
2022-08-05T16:18:18.918Z,77.97
2022-08-05T16:20:46.489Z,77.38
2022-08-05T16:23:13.170Z,77.25
2022-08-05T16:25:40.227Z,77.12
2022-08-05T16:28:10.243Z,77.25
2022-08-05T16:30:37.246Z,77.54
2022-08-05T16:33:04.110Z,77.51
2022-08-05T16:35:33.561Z,77.43
2022-08-05T16:38:03.734Z,77.48
2022-08-05T16:40:52.164Z,77.39
2022-08-05T16:43:23.770Z,77.67
2022-08-05T16:46:06.026Z,77.71
2022-08-05T16:48:35.752Z,77.53
2022-08-05T16:51:03.930Z,77.60
2022-08-05T16:54:03.049Z,77.61
2022-08-05T16:56:29.514Z,77.28
2022-08-05T16:58:57.338Z,77.57
2022-08-05T17:01:24.643Z,77.38
2022-08-05T17:03:52.096Z,77.72
2022-08-05T17:06:19.227Z,77.72
2022-08-05T17:08:52.750Z,77.73
2022-08-05T17:11:25.316Z,78.05
2022-08-05T17:13:54.724Z,77.94
2022-08-05T17:16:33.562Z,77.86
2022-08-05T17:19:02.914Z,78.01
2022-08-05T17:21:36.052Z,78.05
2022-08-05T17:24:18.621Z,78.10
2022-08-05T17:26:56.322Z,78.38
2022-08-05T17:29:39.846Z,78.36
2022-08-05T17:32:11.476Z,78.36
2022-08-05T17:34:43.101Z,78.35
2022-08-05T17:37:32.141Z,78.30
2022-08-05T17:39:56.440Z,78.19
2022-08-05T17:42:30.114Z,78.30
2022-08-05T17:45:18.069Z,78.17
2022-08-05T17:47:52.977Z,78.48
2022-08-05T17:50:28.459Z,78.66
2022-08-05T17:53:01.065Z,78.53
2022-08-05T17:55:37.911Z,78.60
2022-08-05T17:58:11.303Z,78.67
2022-08-05T18:00:45.440Z,78.73
2022-08-05T18:03:39.315Z,78.68
2022-08-05T18:06:06.105Z,78.78
2022-08-05T18:08:40.510Z,78.71
2022-08-05T18:11:11.908Z,79.03
2022-08-05T18:13:51.755Z,79.02
2022-08-05T18:16:20.525Z,78.98
2022-08-05T18:18:47.778Z,78.96
2022-08-05T18:21:21.053Z,79.08
2022-08-05T18:23:50.013Z,78.90
2022-08-05T18:26:21.362Z,79.16
2022-08-05T18:28:54.908Z,79.19
2022-08-05T18:31:23.592Z,79.19
2022-08-05T18:33:51.671Z,78.78
2022-08-05T18:36:19.361Z,78.82
2022-08-05T18:38:46.330Z,78.15
2022-08-05T18:41:55.934Z,77.91
2022-08-05T18:44:05.727Z,77.85
2022-08-05T18:46:34.710Z,77.78
2022-08-05T18:49:22.818Z,77.66
2022-08-05T18:52:15.962Z,76.75
2022-08-05T18:54:45.778Z,76.64
2022-08-05T18:57:15.367Z,76.44
2022-08-05T19:00:03.168Z,76.39
2022-08-05T19:02:29.105Z,76.34
2022-08-05T19:05:02.459Z,76.34
2022-08-05T19:07:48.116Z,76.39
2022-08-05T19:10:28.184Z,76.41
2022-08-05T19:12:56.123Z,76.23
2022-08-05T19:15:57.059Z,76.14
2022-08-05T19:18:13.671Z,75.98
2022-08-05T19:20:49.276Z,76.29
2022-08-05T19:24:03.671Z,76.01
2022-08-05T19:26:03.266Z,76.15
2022-08-05T19:28:34.775Z,76.32
2022-08-05T19:31:05.705Z,76.56
2022-08-05T19:33:36.308Z,76.73
2022-08-05T19:36:06.525Z,77.04
2022-08-05T19:38:37.189Z,77.26
2022-08-05T19:41:08.897Z,77.58
2022-08-05T19:44:06.730Z,77.38
2022-08-05T19:46:29.772Z,77.15
2022-08-05T19:48:57.526Z,77.18
2022-08-05T19:52:04.498Z,77.16
2022-08-05T19:54:24.798Z,77.17
2022-08-05T19:56:58.664Z,77.19
2022-08-05T19:59:54.711Z,77.30
2022-08-05T20:02:14.362Z,77.43
2022-08-05T20:04:43.053Z,77.66
2022-08-05T20:07:13.450Z,77.50
2022-08-05T20:09:54.143Z,77.52
2022-08-05T20:12:23.051Z,77.92
2022-08-05T20:14:52.322Z,78.24
2022-08-05T20:17:23.550Z,78.43
2022-08-05T20:19:57.507Z,78.53
2022-08-05T20:22:27.267Z,78.77
2022-08-05T20:24:54.891Z,78.82
2022-08-05T20:27:27.051Z,78.69
2022-08-05T20:29:58.490Z,78.80
2022-08-05T20:32:25.877Z,78.69
2022-08-05T20:34:52.739Z,78.51
2022-08-05T20:38:04.883Z,78.26
2022-08-05T20:40:07.184Z,78.37
2022-08-05T20:42:34.741Z,78.36
2022-08-05T20:45:02.206Z,78.31
2022-08-05T20:47:31.978Z,77.95
2022-08-05T20:49:59.091Z,77.99
2022-08-05T20:52:25.888Z,78.00
2022-08-05T20:55:55.201Z,77.86
2022-08-05T20:57:43.078Z,77.42
2022-08-05T21:00:40.919Z,77.86
2022-08-05T21:03:07.042Z,77.77
2022-08-05T21:05:48.279Z,77.95
2022-08-05T21:08:28.081Z,77.90
2022-08-05T21:11:10.126Z,77.70
2022-08-05T21:13:56.227Z,77.83
2022-08-05T21:16:29.461Z,77.87
2022-08-05T21:18:56.910Z,78.20
2022-08-05T21:21:26.877Z,78.23
2022-08-05T21:24:07.342Z,77.94
2022-08-05T21:26:33.987Z,77.91
2022-08-05T21:29:03.807Z,78.02
2022-08-05T21:31:41.484Z,78.13
2022-08-05T21:34:10.525Z,78.06
2022-08-05T21:36:38.139Z,78.13
2022-08-05T21:39:05.185Z,78.26
2022-08-05T21:41:35.628Z,78.54
2022-08-05T21:44:04.934Z,78.51
2022-08-05T21:46:35.008Z,78.42
2022-08-05T21:49:07.350Z,78.36
2022-08-05T21:52:22.525Z,78.33
2022-08-05T21:54:30.849Z,78.13
2022-08-05T21:57:29.265Z,78.27
2022-08-05T22:00:03.088Z,77.88
2022-08-05T22:02:31.487Z,78.02
2022-08-05T22:04:58.671Z,78.53
2022-08-05T22:07:40.410Z,78.18
2022-08-05T22:10:12.578Z,78.19
2022-08-05T22:12:50.715Z,78.22
2022-08-05T22:16:01.874Z,78.21
2022-08-05T22:18:06.260Z,78.27
2022-08-05T22:20:35.695Z,78.39
2022-08-05T22:23:24.680Z,78.51
2022-08-05T22:26:11.779Z,78.62
2022-08-05T22:28:41.668Z,78.95
2022-08-05T22:31:08.304Z,78.98
2022-08-05T22:33:56.302Z,78.69
2022-08-05T22:36:25.005Z,78.61
2022-08-05T22:38:53.686Z,78.97
2022-08-05T22:42:05.491Z,79.12
2022-08-05T22:44:08.290Z,79.38
2022-08-05T22:46:39.750Z,79.62
2022-08-05T22:49:23.139Z,79.40
2022-08-05T22:52:05.621Z,77.62
2022-08-05T22:54:35.542Z,77.02
2022-08-05T22:57:03.508Z,76.96
2022-08-05T22:59:43.985Z,76.59
2022-08-05T23:02:16.906Z,76.24
2022-08-05T23:04:51.941Z,76.37
2022-08-05T23:07:22.073Z,75.99
2022-08-05T23:09:57.225Z,76.15
2022-08-05T23:12:28.910Z,75.66
2022-08-05T23:14:58.869Z,76.00
2022-08-05T23:17:32.791Z,75.80
2022-08-05T23:20:02.460Z,75.62
2022-08-05T23:22:29.364Z,75.43
2022-08-05T23:24:57.660Z,75.39
2022-08-05T23:27:31.400Z,75.00
2022-08-05T23:30:11.847Z,74.94
2022-08-05T23:32:45.114Z,74.86
2022-08-05T23:35:12.120Z,74.97
2022-08-05T23:37:38.783Z,74.48
2022-08-05T23:40:07.908Z,74.44
2022-08-05T23:42:37.384Z,74.59
2022-08-05T23:45:13.814Z,74.74
2022-08-05T23:47:47.941Z,74.45
2022-08-05T23:50:14.880Z,74.31
2022-08-05T23:52:50.113Z,74.41
2022-08-05T23:55:19.190Z,74.48
2022-08-05T23:57:51.287Z,74.53
